KCDS/CDS METAR and TAF weather

Enter ICAO airport designator
Station Type Date Time Source
KCDS METAR 2021/05/11 00:53 UTC NOAA

KCDS 110053Z AUTO 09008KT 10SM OVC031 16/08 A3003 RMK AO2 SLP160 T01560078


Station Type Date Time Source
KCDS Decoded METAR 2021/05/11 00:53 UTC NOAA

CHILDRESS MUNICIPAL AIRPORT, TX, United States (KCDS) 34-26N 100-17W 594M
May 10, 2021 - 08:53 PM EDT / 2021.05.11 0053 UTC
Wind: from the E (090 degrees) at 9 MPH (8 KT):0
Visibility: 10 mile(s):0
Sky conditions: overcast
Temperature: 60.1 F (15.6 C)
Dew Point: 46.0 F (7.8 C)
Relative Humidity: 59%
Pressure (altimeter): 30.03 in. Hg (1016 hPa)
ob: KCDS 110053Z AUTO 09008KT 10SM OVC031 16/08 A3003 RMK AO2 SLP160 T01560078
cycle: 1

Station Type Date Time Source
KCDS TAF 2021/05/10 18:30 UTC NOAA

TAF KCDS 101727Z 1018/1118 04009KT P6SM BKN025
FM102000 04010KT P6SM SCT035
FM110400 09008KT P6SM OVC025
FM110800 07008KT 6SM -DZ OVC007

Example: see airport list